sensor_id;sensor_type;location;lat;lon;timestamp;pressure;altitude;pressure_sealevel;temperature;humidity
79230;BME280;68663;49.122;17.544;2023-06-22T00:00:49;99661.25;;;26.18;56.19
79230;BME280;68663;49.122;17.544;2023-06-22T00:03:15;99677.44;;;26.17;56.46
79230;BME280;68663;49.122;17.544;2023-06-22T00:05:41;99671.78;;;26.17;56.10
79230;BME280;68663;49.122;17.544;2023-06-22T00:08:06;99683.13;;;26.17;56.48
79230;BME280;68663;49.122;17.544;2023-06-22T00:10:32;99681.97;;;26.15;56.57
79230;BME280;68663;49.122;17.544;2023-06-22T00:12:57;99690.91;;;26.13;56.58
79230;BME280;68663;49.122;17.544;2023-06-22T00:15:23;99690.91;;;26.13;56.30
79230;BME280;68663;49.122;17.544;2023-06-22T00:17:49;99694.53;;;26.14;56.20
79230;BME280;68663;49.122;17.544;2023-06-22T00:20:15;99699.41;;;26.13;56.04
79230;BME280;68663;49.122;17.544;2023-06-22T00:22:42;99688.06;;;26.13;56.26
79230;BME280;68663;49.122;17.544;2023-06-22T00:25:08;99689.66;;;26.14;56.25
79230;BME280;68663;49.122;17.544;2023-06-22T00:27:34;99692.50;;;26.14;56.18
79230;BME280;68663;49.122;17.544;2023-06-22T00:30:00;99689.66;;;26.14;56.29
79230;BME280;68663;49.122;17.544;2023-06-22T00:32:25;99678.31;;;26.14;56.34
79230;BME280;68663;49.122;17.544;2023-06-22T00:34:51;99679.56;;;26.13;56.18
79230;BME280;68663;49.122;17.544;2023-06-22T00:37:18;99679.56;;;26.13;56.43
79230;BME280;68663;49.122;17.544;2023-06-22T00:39:43;99667.44;;;26.13;56.26
79230;BME280;68663;49.122;17.544;2023-06-22T00:42:09;99667.88;;;26.11;56.20
79230;BME280;68663;49.122;17.544;2023-06-22T00:44:35;99680.00;;;26.12;56.35
79230;BME280;68663;49.122;17.544;2023-06-22T00:47:01;99683.63;;;26.12;56.51
79230;BME280;68663;49.122;17.544;2023-06-22T00:49:26;99680.81;;;26.12;56.59
79230;BME280;68663;49.122;17.544;2023-06-22T00:51:52;99677.97;;;26.12;56.54
79230;BME280;68663;49.122;17.544;2023-06-22T00:54:17;99681.69;;;26.09;56.74
79230;BME280;68663;49.122;17.544;2023-06-22T00:56:58;99691.06;;;26.06;56.60
79230;BME280;68663;49.122;17.544;2023-06-22T00:59:24;99687.41;;;26.06;56.49
79230;BME280;68663;49.122;17.544;2023-06-22T01:01:51;99693.88;;;26.06;56.91
79230;BME280;68663;49.122;17.544;2023-06-22T01:04:17;99689.88;;;26.03;56.77
79230;BME280;68663;49.122;17.544;2023-06-22T01:06:56;99686.69;;;26.01;57.00
79230;BME280;68663;49.122;17.544;2023-06-22T01:09:29;99678.22;;;25.98;56.88
79230;BME280;68663;49.122;17.544;2023-06-22T01:12:00;99675.75;;;26.00;57.08
79230;BME280;68663;49.122;17.544;2023-06-22T01:14:38;99671.34;;;25.99;57.00
79230;BME280;68663;49.122;17.544;2023-06-22T01:17:07;99658.03;;;25.96;57.02
79230;BME280;68663;49.122;17.544;2023-06-22T01:19:55;99647.88;;;25.98;56.73
79230;BME280;68663;49.122;17.544;2023-06-22T01:22:26;99637.34;;;25.99;57.12
79230;BME280;68663;49.122;17.544;2023-06-22T01:30:18;99646.22;;;26.01;56.78
79230;BME280;68663;49.122;17.544;2023-06-22T01:32:44;99647.81;;;26.02;56.78
79230;BME280;68663;49.122;17.544;2023-06-22T01:35:10;99654.28;;;26.02;56.53
79230;BME280;68663;49.122;17.544;2023-06-22T01:37:38;99657.13;;;26.02;56.62
79230;BME280;68663;49.122;17.544;2023-06-22T01:40:04;99655.09;;;26.03;56.76
79230;BME280;68663;49.122;17.544;2023-06-22T01:42:31;99654.66;;;26.05;56.82
79230;BME280;68663;49.122;17.544;2023-06-22T01:44:58;99657.47;;;26.05;56.62
79230;BME280;68663;49.122;17.544;2023-06-22T01:47:24;99652.63;;;26.05;56.42
79230;BME280;68663;49.122;17.544;2023-06-22T01:49:50;99652.63;;;26.05;56.26
79230;BME280;68663;49.122;17.544;2023-06-22T01:52:17;99652.63;;;26.05;56.34
79230;BME280;68663;49.122;17.544;2023-06-22T01:54:43;99659.06;;;26.06;56.44
79230;BME280;68663;49.122;17.544;2023-06-22T01:57:08;99656.25;;;26.06;56.26
79230;BME280;68663;49.122;17.544;2023-06-22T01:59:49;99659.06;;;26.06;56.41
79230;BME280;68663;49.122;17.544;2023-06-22T02:02:20;99656.25;;;26.06;56.38
79230;BME280;68663;49.122;17.544;2023-06-22T02:04:56;99655.44;;;26.05;56.10
79230;BME280;68663;49.122;17.544;2023-06-22T02:07:23;99660.75;;;26.03;56.18
79230;BME280;68663;49.122;17.544;2023-06-22T02:09:54;99652.69;;;26.01;56.07
79230;BME280;68663;49.122;17.544;2023-06-22T02:12:23;99658.41;;;25.98;56.21
79230;BME280;68663;49.122;17.544;2023-06-22T02:14:50;99653.53;;;25.98;56.45
79230;BME280;68663;49.122;17.544;2023-06-22T02:17:17;99655.19;;;25.96;56.21
79230;BME280;68663;49.122;17.544;2023-06-22T02:19:43;99653.53;;;25.98;56.09
79230;BME280;68663;49.122;17.544;2023-06-22T02:22:09;99651.50;;;25.99;56.11
79230;BME280;68663;49.122;17.544;2023-06-22T02:24:34;99657.16;;;25.99;56.32
79230;BME280;68663;49.122;17.544;2023-06-22T02:27:00;99662.84;;;25.99;56.15
79230;BME280;68663;49.122;17.544;2023-06-22T02:29:26;99665.66;;;25.99;56.17
79230;BME280;68663;49.122;17.544;2023-06-22T02:31:53;99669.28;;;25.99;56.22
79230;BME280;68663;49.122;17.544;2023-06-22T02:34:19;99662.84;;;25.99;56.28
79230;BME280;68663;49.122;17.544;2023-06-22T02:36:48;99649.47;;;25.99;56.01
79230;BME280;68663;49.122;17.544;2023-06-22T02:39:25;99647.44;;;26.00;55.83
79230;BME280;68663;49.122;17.544;2023-06-22T02:41:52;99642.19;;;25.98;56.00
79230;BME280;68663;49.122;17.544;2023-06-22T02:44:19;99643.78;;;25.99;56.17
79230;BME280;68663;49.122;17.544;2023-06-22T02:46:45;99641.75;;;26.00;55.94
79230;BME280;68663;49.122;17.544;2023-06-22T02:49:11;99633.69;;;25.98;55.97
79230;BME280;68663;49.122;17.544;2023-06-22T02:51:39;99632.09;;;25.97;55.95
79230;BME280;68663;49.122;17.544;2023-06-22T02:54:05;99648.66;;;25.99;55.80
79230;BME280;68663;49.122;17.544;2023-06-22T02:56:31;99641.41;;;25.98;55.78
79230;BME280;68663;49.122;17.544;2023-06-22T02:58:57;99643.44;;;25.97;55.72
79230;BME280;68663;49.122;17.544;2023-06-22T03:01:27;99641.84;;;25.96;55.45
79230;BME280;68663;49.122;17.544;2023-06-22T03:03:53;99657.69;;;25.94;55.49
79230;BME280;68663;49.122;17.544;2023-06-22T03:06:18;99652.44;;;25.92;55.36
79230;BME280;68663;49.122;17.544;2023-06-22T03:08:48;99655.72;;;25.91;55.44
79230;BME280;68663;49.122;17.544;2023-06-22T03:11:14;99657.81;;;25.87;55.64
79230;BME280;68663;49.122;17.544;2023-06-22T03:13:40;99659.50;;;25.84;55.31
79230;BME280;68663;49.122;17.544;2023-06-22T03:16:05;99663.06;;;25.88;55.32
79230;BME280;68663;49.122;17.544;2023-06-22T03:18:32;99660.22;;;25.88;55.52
79230;BME280;68663;49.122;17.544;2023-06-22T03:20:57;99662.63;;;25.90;55.44
79230;BME280;68663;49.122;17.544;2023-06-22T03:23:22;99661.38;;;25.91;55.34
79230;BME280;68663;49.122;17.544;2023-06-22T03:25:48;99661.38;;;25.91;55.39
79230;BME280;68663;49.122;17.544;2023-06-22T03:28:13;99665.81;;;25.92;55.27
79230;BME280;68663;49.122;17.544;2023-06-22T03:30:39;99665.81;;;25.92;55.05
79230;BME280;68663;49.122;17.544;2023-06-22T03:33:04;99664.22;;;25.91;55.14
79230;BME280;68663;49.122;17.544;2023-06-22T03:35:30;99662.97;;;25.92;55.44
79230;BME280;68663;49.122;17.544;2023-06-22T03:37:55;99662.19;;;25.91;55.04
79230;BME280;68663;49.122;17.544;2023-06-22T03:40:20;99665.00;;;25.91;55.20
79230;BME280;68663;49.122;17.544;2023-06-22T03:42:46;99665.00;;;25.91;55.21
79230;BME280;68663;49.122;17.544;2023-06-22T03:45:12;99664.22;;;25.91;55.11
79230;BME280;68663;49.122;17.544;2023-06-22T03:47:37;99667.84;;;25.91;54.82
79230;BME280;68663;49.122;17.544;2023-06-22T03:50:02;99675.53;;;25.91;55.34
79230;BME280;68663;49.122;17.544;2023-06-22T03:52:29;99679.63;;;25.90;54.81
79230;BME280;68663;49.122;17.544;2023-06-22T03:54:55;99675.97;;;25.89;54.98
79230;BME280;68663;49.122;17.544;2023-06-22T03:57:20;99668.34;;;25.86;54.93
79230;BME280;68663;49.122;17.544;2023-06-22T03:59:46;99677.34;;;25.81;55.33
79230;BME280;68663;49.122;17.544;2023-06-22T04:02:11;99682.22;;;25.81;56.30
79230;BME280;68663;49.122;17.544;2023-06-22T04:04:37;99692.69;;;25.84;56.65
79230;BME280;68663;49.122;17.544;2023-06-22T04:07:04;99685.50;;;25.79;56.52
79230;BME280;68663;49.122;17.544;2023-06-22T04:09:29;99693.56;;;25.81;56.22
79230;BME280;68663;49.122;17.544;2023-06-22T04:11:55;99692.69;;;25.84;56.56
79230;BME280;68663;49.122;17.544;2023-06-22T04:14:20;99681.34;;;25.84;56.39
79230;BME280;68663;49.122;17.544;2023-06-22T04:16:45;99678.09;;;25.85;56.26
79230;BME280;68663;49.122;17.544;2023-06-22T04:19:11;99688.63;;;25.85;56.44
79230;BME280;68663;49.122;17.544;2023-06-22T04:21:42;99689.84;;;25.84;56.86
79230;BME280;68663;49.122;17.544;2023-06-22T04:24:07;99688.63;;;25.85;56.51
79230;BME280;68663;49.122;17.544;2023-06-22T04:26:33;99684.53;;;25.86;56.68
79230;BME280;68663;49.122;17.544;2023-06-22T04:29:03;99682.94;;;25.85;56.48
79230;BME280;68663;49.122;17.544;2023-06-22T04:31:33;99689.41;;;25.85;56.46
79230;BME280;68663;49.122;17.544;2023-06-22T04:34:02;99693.03;;;25.86;56.46
79230;BME280;68663;49.122;17.544;2023-06-22T04:36:41;99700.31;;;25.87;56.29
79230;BME280;68663;49.122;17.544;2023-06-22T04:39:08;99704.38;;;25.86;56.27
79230;BME280;68663;49.122;17.544;2023-06-22T04:41:35;99708.00;;;25.86;56.41
79230;BME280;68663;49.122;17.544;2023-06-22T04:44:18;99724.28;;;25.82;56.59
79230;BME280;68663;49.122;17.544;2023-06-22T04:46:55;99727.53;;;25.81;56.27
79230;BME280;68663;49.122;17.544;2023-06-22T04:49:29;99730.38;;;25.81;56.43
79230;BME280;68663;49.122;17.544;2023-06-22T04:51:59;99735.66;;;25.79;56.54
79230;BME280;68663;49.122;17.544;2023-06-22T04:54:25;99726.75;;;25.80;56.42
79230;BME280;68663;49.122;17.544;2023-06-22T04:56:50;99717.50;;;25.76;56.75
79230;BME280;68663;49.122;17.544;2023-06-22T04:59:22;99715.84;;;25.79;56.64
79230;BME280;68663;49.122;17.544;2023-06-22T05:01:47;99721.50;;;25.79;56.72
79230;BME280;68663;49.122;17.544;2023-06-22T05:04:13;99713.81;;;25.79;56.79
79230;BME280;68663;49.122;17.544;2023-06-22T05:06:39;99700.00;;;25.81;56.52
79230;BME280;68663;49.122;17.544;2023-06-22T05:09:04;99702.03;;;25.81;56.44
79230;BME280;68663;49.122;17.544;2023-06-22T05:11:30;99706.47;;;25.82;56.65
79230;BME280;68663;49.122;17.544;2023-06-22T05:13:56;99714.97;;;25.82;56.80
79230;BME280;68663;49.122;17.544;2023-06-22T05:16:22;99720.63;;;25.82;56.74
79230;BME280;68663;49.122;17.544;2023-06-22T05:18:53;99713.75;;;25.83;56.75
79230;BME280;68663;49.122;17.544;2023-06-22T05:21:22;99721.44;;;25.82;56.86
79230;BME280;68663;49.122;17.544;2023-06-22T05:23:48;99715.78;;;25.82;56.95
79230;BME280;68663;49.122;17.544;2023-06-22T05:26:14;99714.97;;;25.82;56.79
79230;BME280;68663;49.122;17.544;2023-06-22T05:28:39;99722.25;;;25.83;57.17
79230;BME280;68663;49.122;17.544;2023-06-22T05:31:05;99723.47;;;25.82;57.02
79230;BME280;68663;49.122;17.544;2023-06-22T05:33:30;99727.53;;;25.81;57.06
79230;BME280;68663;49.122;17.544;2023-06-22T05:35:56;99714.59;;;25.80;57.32
79230;BME280;68663;49.122;17.544;2023-06-22T05:38:21;99707.41;;;25.75;57.37
79230;BME280;68663;49.122;17.544;2023-06-22T05:40:46;99709.00;;;25.76;57.16
79230;BME280;68663;49.122;17.544;2023-06-22T05:43:12;99710.63;;;25.77;57.25
79230;BME280;68663;49.122;17.544;2023-06-22T05:45:37;99713.06;;;25.75;57.26
79230;BME280;68663;49.122;17.544;2023-06-22T05:48:03;99703.41;;;25.73;57.31
79230;BME280;68663;49.122;17.544;2023-06-22T05:50:28;99706.63;;;25.75;57.35
79230;BME280;68663;49.122;17.544;2023-06-22T05:52:54;99724.34;;;25.79;57.00
79230;BME280;68663;49.122;17.544;2023-06-22T05:55:19;99721.16;;;25.77;57.29
79230;BME280;68663;49.122;17.544;2023-06-22T05:57:45;99716.66;;;25.79;57.31
79230;BME280;68663;49.122;17.544;2023-06-22T06:00:10;99720.28;;;25.80;57.62
79230;BME280;68663;49.122;17.544;2023-06-22T06:02:37;99721.88;;;25.81;56.96
79230;BME280;68663;49.122;17.544;2023-06-22T06:05:09;99723.47;;;25.82;57.00
79230;BME280;68663;49.122;17.544;2023-06-22T06:07:34;99716.22;;;25.81;57.20
79230;BME280;68663;49.122;17.544;2023-06-22T06:09:59;99717.38;;;25.83;57.34
79230;BME280;68663;49.122;17.544;2023-06-22T06:12:25;99712.50;;;25.84;57.31
79230;BME280;68663;49.122;17.544;2023-06-22T06:14:50;99708.44;;;25.85;57.52
79230;BME280;68663;49.122;17.544;2023-06-22T06:17:18;99713.59;;;25.90;57.60
79230;BME280;68663;49.122;17.544;2023-06-22T06:19:43;99709.19;;;25.89;57.58
79230;BME280;68663;49.122;17.544;2023-06-22T06:22:09;99705.91;;;25.90;57.77
79230;BME280;68663;49.122;17.544;2023-06-22T06:24:34;99702.63;;;25.92;57.87
79230;BME280;68663;49.122;17.544;2023-06-22T06:27:00;99702.63;;;25.92;58.17
79230;BME280;68663;49.122;17.544;2023-06-22T06:29:25;99708.66;;;25.94;57.86
79230;BME280;68663;49.122;17.544;2023-06-22T06:31:50;99709.47;;;25.94;57.58
79230;BME280;68663;49.122;17.544;2023-06-22T06:34:16;99713.09;;;25.95;57.66
79230;BME280;68663;49.122;17.544;2023-06-22T06:36:41;99709.84;;;25.96;58.27
79230;BME280;68663;49.122;17.544;2023-06-22T06:39:07;99707.81;;;25.97;58.79
79230;BME280;68663;49.122;17.544;2023-06-22T06:41:34;99706.56;;;25.98;58.30
79230;BME280;68663;49.122;17.544;2023-06-22T06:43:59;99709.75;;;26.00;57.95
79230;BME280;68663;49.122;17.544;2023-06-22T06:46:25;99718.22;;;26.03;57.97
79230;BME280;68663;49.122;17.544;2023-06-22T06:48:51;99712.13;;;26.05;58.16
79230;BME280;68663;49.122;17.544;2023-06-22T06:51:16;99717.34;;;26.07;58.27
79230;BME280;68663;49.122;17.544;2023-06-22T06:53:41;99710.00;;;26.09;58.66
79230;BME280;68663;49.122;17.544;2023-06-22T06:56:07;99698.25;;;26.11;59.76
79230;BME280;68663;49.122;17.544;2023-06-22T06:58:34;99703.13;;;26.10;59.21
79230;BME280;68663;49.122;17.544;2023-06-22T07:00:59;99705.94;;;26.10;58.86
79230;BME280;68663;49.122;17.544;2023-06-22T07:03:24;99707.19;;;26.09;58.59
79230;BME280;68663;49.122;17.544;2023-06-22T07:05:50;99703.53;;;26.09;58.34
79230;BME280;68663;49.122;17.544;2023-06-22T07:08:15;99699.84;;;26.12;58.28
79230;BME280;68663;49.122;17.544;2023-06-22T07:10:41;99697.00;;;26.12;58.39
79230;BME280;68663;49.122;17.544;2023-06-22T07:13:06;99698.59;;;26.13;58.32
79230;BME280;68663;49.122;17.544;2023-06-22T07:15:31;99698.16;;;26.14;58.36
79230;BME280;68663;49.122;17.544;2023-06-22T07:17:57;99702.59;;;26.15;57.81
79230;BME280;68663;49.122;17.544;2023-06-22T07:20:22;99699.31;;;26.17;57.86
79230;BME280;68663;49.122;17.544;2023-06-22T07:22:48;99706.59;;;26.18;57.70
79230;BME280;68663;49.122;17.544;2023-06-22T07:25:13;99690.38;;;26.18;57.96
79230;BME280;68663;49.122;17.544;2023-06-22T07:27:57;99703.69;;;26.21;57.57
79230;BME280;68663;49.122;17.544;2023-06-22T07:30:23;99687.91;;;26.20;57.59
79230;BME280;68663;49.122;17.544;2023-06-22T07:32:48;99686.31;;;26.19;57.69
79230;BME280;68663;49.122;17.544;2023-06-22T07:35:13;99688.78;;;26.17;56.98
79230;BME280;68663;49.122;17.544;2023-06-22T07:37:41;99684.78;;;26.15;56.09
79230;BME280;68663;49.122;17.544;2023-06-22T07:40:07;99692.13;;;26.12;55.86
79230;BME280;68663;49.122;17.544;2023-06-22T07:42:33;99685.31;;;26.10;55.92
79230;BME280;68663;49.122;17.544;2023-06-22T07:44:58;99690.53;;;26.11;55.24
79230;BME280;68663;49.122;17.544;2023-06-22T07:47:23;99699.84;;;26.12;55.71
79230;BME280;68663;49.122;17.544;2023-06-22T07:49:51;99697.81;;;26.12;55.18
79230;BME280;68663;49.122;17.544;2023-06-22T07:52:17;99694.59;;;26.10;54.74
79230;BME280;68663;49.122;17.544;2023-06-22T07:54:42;99694.97;;;26.12;55.01
79230;BME280;68663;49.122;17.544;2023-06-22T07:57:08;99694.47;;;26.17;54.72
79230;BME280;68663;49.122;17.544;2023-06-22T07:59:33;99691.34;;;26.12;53.75
79230;BME280;68663;49.122;17.544;2023-06-22T08:01:59;99693.00;;;26.09;54.24
79230;BME280;68663;49.122;17.544;2023-06-22T08:04:24;99691.78;;;26.10;54.00
79230;BME280;68663;49.122;17.544;2023-06-22T08:06:50;99697.94;;;26.05;53.66
79230;BME280;68663;49.122;17.544;2023-06-22T08:09:15;99697.25;;;25.97;53.52
79230;BME280;68663;49.122;17.544;2023-06-22T08:11:40;99696.41;;;26.00;53.69
79230;BME280;68663;49.122;17.544;2023-06-22T08:14:06;99700.78;;;26.05;54.00
79230;BME280;68663;49.122;17.544;2023-06-22T08:16:31;99696.00;;;26.02;53.02
79230;BME280;68663;49.122;17.544;2023-06-22T08:18:57;99694.31;;;26.05;52.83
79230;BME280;68663;49.122;17.544;2023-06-22T08:21:23;99699.91;;;26.08;52.96
79230;BME280;68663;49.122;17.544;2023-06-22T08:23:48;99700.28;;;26.10;52.63
79230;BME280;68663;49.122;17.544;2023-06-22T08:26:14;99693.97;;;26.02;52.52
79230;BME280;68663;49.122;17.544;2023-06-22T08:28:39;99700.00;;;26.05;52.41
79230;BME280;68663;49.122;17.544;2023-06-22T08:31:05;99692.66;;;26.07;52.03
79230;BME280;68663;49.122;17.544;2023-06-22T08:33:30;99701.16;;;26.07;51.93
79230;BME280;68663;49.122;17.544;2023-06-22T08:35:58;99696.28;;;26.08;51.67
79230;BME280;68663;49.122;17.544;2023-06-22T08:38:23;99691.41;;;26.08;51.62
79230;BME280;68663;49.122;17.544;2023-06-22T08:40:49;99680.16;;;26.05;51.63
79230;BME280;68663;49.122;17.544;2023-06-22T08:43:15;99677.75;;;26.03;50.96
79230;BME280;68663;49.122;17.544;2023-06-22T08:45:40;99682.53;;;26.06;51.30
79230;BME280;68663;49.122;17.544;2023-06-22T08:48:05;99681.31;;;26.07;50.92
79230;BME280;68663;49.122;17.544;2023-06-22T08:50:31;99673.69;;;26.04;50.21
79230;BME280;68663;49.122;17.544;2023-06-22T08:52:56;99676.88;;;26.06;50.54
79230;BME280;68663;49.122;17.544;2023-06-22T08:55:22;99666.41;;;26.03;50.53
79230;BME280;68663;49.122;17.544;2023-06-22T08:57:47;99675.72;;;26.03;50.84
79230;BME280;68663;49.122;17.544;2023-06-22T09:00:13;99682.53;;;26.06;50.77
79230;BME280;68663;49.122;17.544;2023-06-22T09:02:46;99674.03;;;26.06;51.09
79230;BME280;68663;49.122;17.544;2023-06-22T09:05:12;99674.41;;;26.08;51.29
79230;BME280;68663;49.122;17.544;2023-06-22T09:07:37;99665.91;;;26.08;51.70
79230;BME280;68663;49.122;17.544;2023-06-22T09:10:03;99665.91;;;26.08;51.79
79230;BME280;68663;49.122;17.544;2023-06-22T09:12:32;99667.16;;;26.07;52.32
79230;BME280;68663;49.122;17.544;2023-06-22T09:14:59;99673.53;;;26.11;52.15
79230;BME280;68663;49.122;17.544;2023-06-22T09:17:26;99665.84;;;26.12;52.19
79230;BME280;68663;49.122;17.544;2023-06-22T09:19:51;99666.19;;;26.14;52.46
79230;BME280;68663;49.122;17.544;2023-06-22T09:22:17;99667.00;;;26.14;52.53
79230;BME280;68663;49.122;17.544;2023-06-22T09:24:42;99663.81;;;26.12;52.40
79230;BME280;68663;49.122;17.544;2023-06-22T09:27:08;99660.53;;;26.14;52.90
79230;BME280;68663;49.122;17.544;2023-06-22T09:29:33;99669.38;;;26.16;52.79
79230;BME280;68663;49.122;17.544;2023-06-22T09:32:00;99659.22;;;26.18;52.69
79230;BME280;68663;49.122;17.544;2023-06-22T09:34:25;99657.53;;;26.21;52.54
79230;BME280;68663;49.122;17.544;2023-06-22T09:36:51;99653.09;;;26.20;52.64
79230;BME280;68663;49.122;17.544;2023-06-22T09:39:18;99659.13;;;26.22;52.71
79230;BME280;68663;49.122;17.544;2023-06-22T09:41:43;99647.59;;;26.13;52.88
79230;BME280;68663;49.122;17.544;2023-06-22T09:44:09;99638.66;;;26.14;53.16
79230;BME280;68663;49.122;17.544;2023-06-22T09:46:34;99634.59;;;26.15;52.65
79230;BME280;68663;49.122;17.544;2023-06-22T09:49:00;99634.59;;;26.15;52.89
79230;BME280;68663;49.122;17.544;2023-06-22T09:51:25;99624.13;;;26.12;53.06
79230;BME280;68663;49.122;17.544;2023-06-22T09:53:51;99623.31;;;26.12;53.42
79230;BME280;68663;49.122;17.544;2023-06-22T09:56:19;99614.38;;;26.13;53.28
79230;BME280;68663;49.122;17.544;2023-06-22T09:58:46;99623.59;;;26.17;53.48
79230;BME280;68663;49.122;17.544;2023-06-22T10:01:12;99614.66;;;26.19;53.60
79230;BME280;68663;49.122;17.544;2023-06-22T10:03:39;99611.91;;;26.15;54.17
79230;BME280;68663;49.122;17.544;2023-06-22T10:06:06;99611.03;;;26.18;54.14
79230;BME280;68663;49.122;17.544;2023-06-22T10:08:31;99624.31;;;26.21;53.59
79230;BME280;68663;49.122;17.544;2023-06-22T10:10:57;99621.06;;;26.23;53.64
79230;BME280;68663;49.122;17.544;2023-06-22T10:13:22;99617.50;;;26.19;53.70
79230;BME280;68663;49.122;17.544;2023-06-22T10:15:47;99613.00;;;26.21;54.14
79230;BME280;68663;49.122;17.544;2023-06-22T10:18:17;99616.19;;;26.23;54.17
79230;BME280;68663;49.122;17.544;2023-06-22T10:20:43;99602.38;;;26.25;54.06
79230;BME280;68663;49.122;17.544;2023-06-22T10:23:08;99604.03;;;26.23;53.96
79230;BME280;68663;49.122;17.544;2023-06-22T10:25:33;99617.34;;;26.26;53.91
79230;BME280;68663;49.122;17.544;2023-06-22T10:27:59;99603.97;;;26.26;53.56
79230;BME280;68663;49.122;17.544;2023-06-22T10:30:24;99607.25;;;26.25;54.06
79230;BME280;68663;49.122;17.544;2023-06-22T10:32:50;99604.84;;;26.23;54.26
79230;BME280;68663;49.122;17.544;2023-06-22T10:35:16;99599.53;;;26.25;54.18
79230;BME280;68663;49.122;17.544;2023-06-22T10:37:44;99594.66;;;26.26;54.69
79230;BME280;68663;49.122;17.544;2023-06-22T10:40:14;99602.09;;;26.20;53.49
79230;BME280;68663;49.122;17.544;2023-06-22T10:42:40;99594.91;;;26.15;53.72
79230;BME280;68663;49.122;17.544;2023-06-22T10:45:07;99592.44;;;26.17;53.62
79230;BME280;68663;49.122;17.544;2023-06-22T10:47:33;99585.88;;;26.20;53.52
79230;BME280;68663;49.122;17.544;2023-06-22T10:49:59;99583.41;;;26.22;53.48
79230;BME280;68663;49.122;17.544;2023-06-22T10:52:24;99586.25;;;26.22;53.85
79230;BME280;68663;49.122;17.544;2023-06-22T10:54:50;99580.94;;;26.24;53.41
79230;BME280;68663;49.122;17.544;2023-06-22T10:57:15;99589.78;;;26.26;53.77
79230;BME280;68663;49.122;17.544;2023-06-22T10:59:41;99585.72;;;26.27;53.43
79230;BME280;68663;49.122;17.544;2023-06-22T11:02:06;99582.53;;;26.25;53.95
79230;BME280;68663;49.122;17.544;2023-06-22T11:04:32;99578.09;;;26.24;53.82
79230;BME280;68663;49.122;17.544;2023-06-22T11:06:57;99574.38;;;26.27;53.95
79230;BME280;68663;49.122;17.544;2023-06-22T11:09:23;99570.31;;;26.28;53.91
79230;BME280;68663;49.122;17.544;2023-06-22T11:11:49;99567.84;;;26.30;53.60
79230;BME280;68663;49.122;17.544;2023-06-22T11:14:15;99565.38;;;26.32;53.75
79230;BME280;68663;49.122;17.544;2023-06-22T11:16:40;99562.13;;;26.34;53.86
79230;BME280;68663;49.122;17.544;2023-06-22T11:19:06;99556.44;;;26.34;53.61
79230;BME280;68663;49.122;17.544;2023-06-22T11:21:32;99547.50;;;26.36;54.27
79230;BME280;68663;49.122;17.544;2023-06-22T11:23:58;99551.56;;;26.34;53.72
79230;BME280;68663;49.122;17.544;2023-06-22T11:26:24;99544.66;;;26.36;54.03
79230;BME280;68663;49.122;17.544;2023-06-22T11:28:52;99538.19;;;26.35;53.67
79230;BME280;68663;49.122;17.544;2023-06-22T11:31:17;99547.50;;;26.36;53.67
79230;BME280;68663;49.122;17.544;2023-06-22T11:33:43;99545.25;;;26.27;53.96
79230;BME280;68663;49.122;17.544;2023-06-22T11:36:10;99541.97;;;26.28;53.88
79230;BME280;68663;49.122;17.544;2023-06-22T11:38:36;99548.38;;;26.32;54.17
79230;BME280;68663;49.122;17.544;2023-06-22T11:41:05;99536.66;;;26.30;54.14
79230;BME280;68663;49.122;17.544;2023-06-22T11:43:31;99534.22;;;26.32;54.83
79230;BME280;68663;49.122;17.544;2023-06-22T11:45:56;99534.56;;;26.34;54.10
79230;BME280;68663;49.122;17.544;2023-06-22T11:48:25;99520.03;;;26.32;54.34
79230;BME280;68663;49.122;17.544;2023-06-22T11:50:51;99531.38;;;26.32;54.39
79230;BME280;68663;49.122;17.544;2023-06-22T11:53:16;99522.44;;;26.34;54.76
79230;BME280;68663;49.122;17.544;2023-06-22T11:55:43;99525.63;;;26.36;54.95
79230;BME280;68663;49.122;17.544;2023-06-22T11:58:09;99514.78;;;26.31;53.09
79230;BME280;68663;49.122;17.544;2023-06-22T12:00:34;99514.38;;;26.32;53.39
79230;BME280;68663;49.122;17.544;2023-06-22T12:03:00;99513.13;;;26.33;54.63
79230;BME280;68663;49.122;17.544;2023-06-22T12:05:25;99504.19;;;26.35;54.08
79230;BME280;68663;49.122;17.544;2023-06-22T12:07:53;99501.69;;;26.37;53.96
79230;BME280;68663;49.122;17.544;2023-06-22T12:10:18;99515.06;;;26.37;53.56
79230;BME280;68663;49.122;17.544;2023-06-22T12:12:44;99510.66;;;26.36;54.57
79230;BME280;68663;49.122;17.544;2023-06-22T12:15:10;99507.38;;;26.37;54.39
79230;BME280;68663;49.122;17.544;2023-06-22T12:17:35;99504.53;;;26.37;54.27
79230;BME280;68663;49.122;17.544;2023-06-22T12:20:01;99501.25;;;26.39;53.85
79230;BME280;68663;49.122;17.544;2023-06-22T12:22:30;99494.88;;;26.34;54.13
79230;BME280;68663;49.122;17.544;2023-06-22T12:24:56;99487.97;;;26.36;54.34
79230;BME280;68663;49.122;17.544;2023-06-22T12:27:21;99491.59;;;26.36;54.18
79230;BME280;68663;49.122;17.544;2023-06-22T12:29:48;99486.72;;;26.37;54.27
79230;BME280;68663;49.122;17.544;2023-06-22T12:32:13;99480.63;;;26.38;53.94
79230;BME280;68663;49.122;17.544;2023-06-22T12:34:41;99480.16;;;26.40;53.88
79230;BME280;68663;49.122;17.544;2023-06-22T12:37:06;99478.47;;;26.42;53.97
79230;BME280;68663;49.122;17.544;2023-06-22T12:39:32;99473.34;;;26.37;53.79
79230;BME280;68663;49.122;17.544;2023-06-22T12:41:58;99481.75;;;26.41;53.96
79230;BME280;68663;49.122;17.544;2023-06-22T12:44:23;99474.84;;;26.42;53.80
79230;BME280;68663;49.122;17.544;2023-06-22T12:46:49;99477.34;;;26.40;53.84
79230;BME280;68663;49.122;17.544;2023-06-22T12:49:15;99475.75;;;26.39;53.94
79230;BME280;68663;49.122;17.544;2023-06-22T12:51:41;99472.03;;;26.42;53.89